sensor_id;sensor_type;location;lat;lon;timestamp;P1;durP1;ratioP1;P2;durP2;ratioP2
45318;SDS011;31057;48.498;32.260;2022-11-15T00:00:42;175.45;;;91.45;;
45318;SDS011;31057;48.498;32.260;2022-11-15T00:02:44;153.15;;;80.60;;
45318;SDS011;31057;48.498;32.260;2022-11-15T00:04:46;160.30;;;86.03;;
45318;SDS011;31057;48.498;32.260;2022-11-15T00:06:48;155.20;;;84.20;;
45318;SDS011;31057;48.498;32.260;2022-11-15T00:10:55;150.48;;;84.93;;
45318;SDS011;31057;48.498;32.260;2022-11-15T00:13:11;172.68;;;88.05;;
45318;SDS011;31057;48.498;32.260;2022-11-15T00:15:14;169.77;;;85.07;;
45318;SDS011;31057;48.498;32.260;2022-11-15T00:19:17;147.70;;;82.88;;
45318;SDS011;31057;48.498;32.260;2022-11-15T00:21:19;140.48;;;78.18;;
45318;SDS011;31057;48.498;32.260;2022-11-15T00:23:21;159.43;;;82.95;;
45318;SDS011;31057;48.498;32.260;2022-11-15T00:27:26;159.95;;;81.15;;
45318;SDS011;31057;48.498;32.260;2022-11-15T00:29:28;155.95;;;85.80;;
45318;SDS011;31057;48.498;32.260;2022-11-15T00:33:32;163.25;;;89.13;;
45318;SDS011;31057;48.498;32.260;2022-11-15T00:35:35;177.65;;;93.65;;
45318;SDS011;31057;48.498;32.260;2022-11-15T00:37:37;155.43;;;85.75;;
45318;SDS011;31057;48.498;32.260;2022-11-15T00:39:39;142.82;;;78.05;;
45318;SDS011;31057;48.498;32.260;2022-11-15T00:41:41;136.77;;;68.05;;
45318;SDS011;31057;48.498;32.260;2022-11-15T00:45:45;100.18;;;44.15;;
45318;SDS011;31057;48.498;32.260;2022-11-15T00:51:51;137.15;;;44.33;;
45318;SDS011;31057;48.498;32.260;2022-11-15T00:53:53;146.63;;;39.42;;
45318;SDS011;31057;48.498;32.260;2022-11-15T00:55:55;149.27;;;46.38;;
45318;SDS011;31057;48.498;32.260;2022-11-15T00:57:57;197.93;;;46.85;;
45318;SDS011;31057;48.498;32.260;2022-11-15T00:59:59;212.25;;;45.95;;
45318;SDS011;31057;48.498;32.260;2022-11-15T01:02:00;269.65;;;47.15;;
45318;SDS011;31057;48.498;32.260;2022-11-15T01:04:02;179.18;;;40.15;;
45318;SDS011;31057;48.498;32.260;2022-11-15T01:08:09;119.38;;;34.70;;
45318;SDS011;31057;48.498;32.260;2022-11-15T01:10:15;210.85;;;46.05;;
45318;SDS011;31057;48.498;32.260;2022-11-15T01:12:17;253.38;;;47.70;;
45318;SDS011;31057;48.498;32.260;2022-11-15T01:16:25;221.45;;;46.40;;
45318;SDS011;31057;48.498;32.260;2022-11-15T01:20:29;314.10;;;46.53;;
45318;SDS011;31057;48.498;32.260;2022-11-15T01:22:31;294.67;;;50.72;;
45318;SDS011;31057;48.498;32.260;2022-11-15T01:24:33;256.23;;;54.35;;
45318;SDS011;31057;48.498;32.260;2022-11-15T01:26:35;311.40;;;53.78;;
45318;SDS011;31057;48.498;32.260;2022-11-15T01:28:37;220.48;;;44.67;;
45318;SDS011;31057;48.498;32.260;2022-11-15T01:30:40;318.08;;;51.35;;
45318;SDS011;31057;48.498;32.260;2022-11-15T01:32:42;230.35;;;48.75;;
45318;SDS011;31057;48.498;32.260;2022-11-15T01:34:44;216.98;;;48.47;;
45318;SDS011;31057;48.498;32.260;2022-11-15T01:36:46;385.75;;;59.40;;
45318;SDS011;31057;48.498;32.260;2022-11-15T01:38:54;179.90;;;45.42;;
45318;SDS011;31057;48.498;32.260;2022-11-15T01:40:57;270.42;;;52.83;;
45318;SDS011;31057;48.498;32.260;2022-11-15T01:43:17;275.70;;;54.25;;
45318;SDS011;31057;48.498;32.260;2022-11-15T01:45:34;327.85;;;55.53;;
45318;SDS011;31057;48.498;32.260;2022-11-15T01:47:37;298.10;;;52.10;;
45318;SDS011;31057;48.498;32.260;2022-11-15T01:49:46;328.85;;;49.83;;
45318;SDS011;31057;48.498;32.260;2022-11-15T01:52:02;207.07;;;42.65;;
45318;SDS011;31057;48.498;32.260;2022-11-15T01:54:07;260.05;;;46.45;;
45318;SDS011;31057;48.498;32.260;2022-11-15T01:56:15;199.32;;;47.65;;
45318;SDS011;31057;48.498;32.260;2022-11-15T01:58:20;213.30;;;44.85;;
45318;SDS011;31057;48.498;32.260;2022-11-15T02:00:22;200.00;;;43.90;;
45318;SDS011;31057;48.498;32.260;2022-11-15T02:02:24;256.67;;;47.83;;
45318;SDS011;31057;48.498;32.260;2022-11-15T02:04:27;216.23;;;40.00;;
45318;SDS011;31057;48.498;32.260;2022-11-15T02:06:30;133.63;;;36.53;;
45318;SDS011;31057;48.498;32.260;2022-11-15T02:08:32;130.60;;;36.83;;
45318;SDS011;31057;48.498;32.260;2022-11-15T02:12:36;267.50;;;44.47;;
45318;SDS011;31057;48.498;32.260;2022-11-15T02:14:39;301.95;;;49.15;;
45318;SDS011;31057;48.498;32.260;2022-11-15T02:24:07;244.88;;;44.85;;
45318;SDS011;31057;48.498;32.260;2022-11-15T02:31:04;211.43;;;45.80;;
45318;SDS011;31057;48.498;32.260;2022-11-15T02:40:04;307.25;;;47.75;;
45318;SDS011;31057;48.498;32.260;2022-11-15T02:42:17;328.30;;;51.25;;
45318;SDS011;31057;48.498;32.260;2022-11-15T02:44:43;165.68;;;43.00;;
45318;SDS011;31057;48.498;32.260;2022-11-15T02:46:51;276.45;;;49.80;;
45318;SDS011;31057;48.498;32.260;2022-11-15T02:49:14;154.65;;;40.83;;
45318;SDS011;31057;48.498;32.260;2022-11-15T02:51:17;131.60;;;39.42;;
45318;SDS011;31057;48.498;32.260;2022-11-15T02:53:23;177.30;;;43.78;;
45318;SDS011;31057;48.498;32.260;2022-11-15T02:55:31;136.10;;;38.92;;
45318;SDS011;31057;48.498;32.260;2022-11-15T03:02:08;362.05;;;92.03;;
45318;SDS011;31057;48.498;32.260;2022-11-15T03:06:42;201.20;;;53.85;;
45318;SDS011;31057;48.498;32.260;2022-11-15T03:15:32;140.00;;;39.67;;
45318;SDS011;31057;48.498;32.260;2022-11-15T03:17:41;101.55;;;40.85;;
45318;SDS011;31057;48.498;32.260;2022-11-15T03:19:59;132.93;;;43.53;;
45318;SDS011;31057;48.498;32.260;2022-11-15T03:22:03;140.15;;;43.38;;
45318;SDS011;31057;48.498;32.260;2022-11-15T03:24:11;224.63;;;45.33;;
45318;SDS011;31057;48.498;32.260;2022-11-15T03:26:16;151.85;;;41.13;;
45318;SDS011;31057;48.498;32.260;2022-11-15T03:28:24;125.35;;;42.40;;
45318;SDS011;31057;48.498;32.260;2022-11-15T03:30:38;112.07;;;44.40;;
45318;SDS011;31057;48.498;32.260;2022-11-15T03:32:44;162.68;;;43.67;;
45318;SDS011;31057;48.498;32.260;2022-11-15T03:34:52;148.40;;;43.05;;
45318;SDS011;31057;48.498;32.260;2022-11-15T03:37:15;154.23;;;44.88;;
45318;SDS011;31057;48.498;32.260;2022-11-15T03:39:18;190.18;;;46.65;;
45318;SDS011;31057;48.498;32.260;2022-11-15T03:41:23;118.75;;;40.78;;
45318;SDS011;31057;48.498;32.260;2022-11-15T03:43:33;130.95;;;42.15;;
45318;SDS011;31057;48.498;32.260;2022-11-15T03:45:48;121.05;;;43.25;;
45318;SDS011;31057;48.498;32.260;2022-11-15T03:47:58;127.45;;;46.03;;
45318;SDS011;31057;48.498;32.260;2022-11-15T03:50:03;168.50;;;48.88;;
45318;SDS011;31057;48.498;32.260;2022-11-15T03:52:09;162.50;;;45.72;;
45318;SDS011;31057;48.498;32.260;2022-11-15T03:54:12;170.05;;;45.35;;
45318;SDS011;31057;48.498;32.260;2022-11-15T03:56:14;194.95;;;49.50;;
45318;SDS011;31057;48.498;32.260;2022-11-15T03:58:16;163.55;;;44.75;;
45318;SDS011;31057;48.498;32.260;2022-11-15T04:02:20;235.95;;;47.38;;
45318;SDS011;31057;48.498;32.260;2022-11-15T04:04:22;140.63;;;41.35;;
45318;SDS011;31057;48.498;32.260;2022-11-15T04:06:24;122.28;;;47.53;;
45318;SDS011;31057;48.498;32.260;2022-11-15T04:10:27;118.20;;;41.40;;
45318;SDS011;31057;48.498;32.260;2022-11-15T04:12:30;80.70;;;38.65;;
45318;SDS011;31057;48.498;32.260;2022-11-15T04:14:33;125.32;;;41.15;;
45318;SDS011;31057;48.498;32.260;2022-11-15T04:16:35;122.93;;;43.17;;
45318;SDS011;31057;48.498;32.260;2022-11-15T04:18:43;159.02;;;45.55;;
45318;SDS011;31057;48.498;32.260;2022-11-15T04:20:45;339.08;;;60.95;;
45318;SDS011;31057;48.498;32.260;2022-11-15T04:23:10;131.98;;;46.80;;
45318;SDS011;31057;48.498;32.260;2022-11-15T04:25:32;159.75;;;50.83;;
45318;SDS011;31057;48.498;32.260;2022-11-15T04:29:37;132.20;;;43.45;;
45318;SDS011;31057;48.498;32.260;2022-11-15T04:33:41;161.00;;;47.08;;
45318;SDS011;31057;48.498;32.260;2022-11-15T04:35:43;182.60;;;47.85;;
45318;SDS011;31057;48.498;32.260;2022-11-15T04:38:05;171.77;;;49.15;;
45318;SDS011;31057;48.498;32.260;2022-11-15T04:40:09;244.93;;;51.58;;
45318;SDS011;31057;48.498;32.260;2022-11-15T04:42:12;195.95;;;50.60;;
45318;SDS011;31057;48.498;32.260;2022-11-15T04:44:14;301.92;;;59.85;;
45318;SDS011;31057;48.498;32.260;2022-11-15T04:46:17;199.75;;;48.78;;
45318;SDS011;31057;48.498;32.260;2022-11-15T04:48:19;417.13;;;62.88;;
45318;SDS011;31057;48.498;32.260;2022-11-15T04:50:21;184.70;;;51.25;;
45318;SDS011;31057;48.498;32.260;2022-11-15T04:52:23;157.18;;;43.47;;
45318;SDS011;31057;48.498;32.260;2022-11-15T04:54:25;218.52;;;46.92;;
45318;SDS011;31057;48.498;32.260;2022-11-15T04:56:26;241.30;;;50.95;;
45318;SDS011;31057;48.498;32.260;2022-11-15T04:58:28;127.88;;;45.83;;
45318;SDS011;31057;48.498;32.260;2022-11-15T05:00:30;134.15;;;44.28;;
45318;SDS011;31057;48.498;32.260;2022-11-15T05:02:32;186.32;;;43.47;;
45318;SDS011;31057;48.498;32.260;2022-11-15T05:04:53;275.60;;;47.25;;
45318;SDS011;31057;48.498;32.260;2022-11-15T05:06:54;186.07;;;41.05;;
45318;SDS011;31057;48.498;32.260;2022-11-15T05:08:56;108.60;;;35.63;;
45318;SDS011;31057;48.498;32.260;2022-11-15T05:10:58;362.80;;;56.40;;
45318;SDS011;31057;48.498;32.260;2022-11-15T05:13:02;218.90;;;47.28;;
45318;SDS011;31057;48.498;32.260;2022-11-15T05:15:04;404.88;;;64.70;;
45318;SDS011;31057;48.498;32.260;2022-11-15T05:17:06;170.68;;;43.25;;
45318;SDS011;31057;48.498;32.260;2022-11-15T05:19:08;160.13;;;43.22;;
45318;SDS011;31057;48.498;32.260;2022-11-15T05:21:11;191.75;;;47.33;;
45318;SDS011;31057;48.498;32.260;2022-11-15T05:23:14;382.13;;;62.40;;
45318;SDS011;31057;48.498;32.260;2022-11-15T05:25:16;80.47;;;34.45;;
45318;SDS011;31057;48.498;32.260;2022-11-15T05:27:18;435.58;;;66.50;;
45318;SDS011;31057;48.498;32.260;2022-11-15T05:29:20;135.05;;;45.30;;
45318;SDS011;31057;48.498;32.260;2022-11-15T05:33:24;119.95;;;35.28;;
45318;SDS011;31057;48.498;32.260;2022-11-15T05:35:30;162.90;;;34.90;;
45318;SDS011;31057;48.498;32.260;2022-11-15T05:39:39;127.85;;;30.42;;
45318;SDS011;31057;48.498;32.260;2022-11-15T05:41:46;265.17;;;41.58;;
45318;SDS011;31057;48.498;32.260;2022-11-15T05:43:53;718.40;;;89.80;;
45318;SDS011;31057;48.498;32.260;2022-11-15T05:47:58;230.43;;;42.13;;
45318;SDS011;31057;48.498;32.260;2022-11-15T05:50:02;185.52;;;39.60;;
45318;SDS011;31057;48.498;32.260;2022-11-15T05:52:05;321.88;;;49.60;;
45318;SDS011;31057;48.498;32.260;2022-11-15T05:54:10;277.02;;;44.90;;
45318;SDS011;31057;48.498;32.260;2022-11-15T05:56:12;207.00;;;43.45;;
45318;SDS011;31057;48.498;32.260;2022-11-15T05:58:15;254.63;;;49.80;;
45318;SDS011;31057;48.498;32.260;2022-11-15T06:00:18;266.80;;;50.90;;
45318;SDS011;31057;48.498;32.260;2022-11-15T06:02:20;185.75;;;45.00;;
45318;SDS011;31057;48.498;32.260;2022-11-15T06:06:23;209.90;;;41.97;;
45318;SDS011;31057;48.498;32.260;2022-11-15T06:08:25;117.47;;;37.90;;
45318;SDS011;31057;48.498;32.260;2022-11-15T06:10:28;161.18;;;42.40;;
45318;SDS011;31057;48.498;32.260;2022-11-15T06:12:30;367.05;;;54.67;;
45318;SDS011;31057;48.498;32.260;2022-11-15T06:14:31;246.73;;;46.22;;
45318;SDS011;31057;48.498;32.260;2022-11-15T06:16:33;180.23;;;47.03;;
45318;SDS011;31057;48.498;32.260;2022-11-15T06:18:35;146.15;;;41.63;;
45318;SDS011;31057;48.498;32.260;2022-11-15T06:22:39;94.68;;;35.65;;
45318;SDS011;31057;48.498;32.260;2022-11-15T06:24:41;172.32;;;45.72;;
45318;SDS011;31057;48.498;32.260;2022-11-15T06:26:45;93.13;;;34.58;;
45318;SDS011;31057;48.498;32.260;2022-11-15T06:28:46;159.35;;;40.10;;
45318;SDS011;31057;48.498;32.260;2022-11-15T06:30:48;108.47;;;37.33;;
45318;SDS011;31057;48.498;32.260;2022-11-15T06:33:00;219.38;;;41.33;;
45318;SDS011;31057;48.498;32.260;2022-11-15T06:35:03;132.15;;;30.65;;
45318;SDS011;31057;48.498;32.260;2022-11-15T06:37:05;150.98;;;30.58;;
45318;SDS011;31057;48.498;32.260;2022-11-15T06:39:07;148.95;;;32.15;;
45318;SDS011;31057;48.498;32.260;2022-11-15T06:41:10;203.85;;;35.38;;
45318;SDS011;31057;48.498;32.260;2022-11-15T06:43:13;81.20;;;35.10;;
45318;SDS011;31057;48.498;32.260;2022-11-15T06:45:15;115.97;;;32.75;;
45318;SDS011;31057;48.498;32.260;2022-11-15T06:47:17;107.93;;;35.50;;
45318;SDS011;31057;48.498;32.260;2022-11-15T06:49:19;144.85;;;37.08;;
45318;SDS011;31057;48.498;32.260;2022-11-15T06:51:21;137.32;;;38.28;;
45318;SDS011;31057;48.498;32.260;2022-11-15T06:53:23;85.25;;;32.15;;
45318;SDS011;31057;48.498;32.260;2022-11-15T06:55:27;70.63;;;31.33;;
45318;SDS011;31057;48.498;32.260;2022-11-15T06:57:29;97.25;;;33.88;;
45318;SDS011;31057;48.498;32.260;2022-11-15T06:59:31;75.32;;;34.72;;
45318;SDS011;31057;48.498;32.260;2022-11-15T07:01:40;78.85;;;30.58;;
45318;SDS011;31057;48.498;32.260;2022-11-15T07:05:51;65.70;;;31.33;;
45318;SDS011;31057;48.498;32.260;2022-11-15T07:07:55;77.18;;;33.85;;
45318;SDS011;31057;48.498;32.260;2022-11-15T07:09:58;155.68;;;38.72;;
45318;SDS011;31057;48.498;32.260;2022-11-15T07:12:00;115.32;;;34.40;;
45318;SDS011;31057;48.498;32.260;2022-11-15T07:14:07;99.35;;;36.28;;
45318;SDS011;31057;48.498;32.260;2022-11-15T07:16:09;206.57;;;43.03;;
45318;SDS011;31057;48.498;32.260;2022-11-15T07:18:12;237.52;;;48.92;;
45318;SDS011;31057;48.498;32.260;2022-11-15T07:20:14;91.45;;;39.72;;
45318;SDS011;31057;48.498;32.260;2022-11-15T07:22:16;182.52;;;44.38;;
45318;SDS011;31057;48.498;32.260;2022-11-15T07:24:18;122.50;;;43.22;;
45318;SDS011;31057;48.498;32.260;2022-11-15T07:26:20;173.52;;;43.65;;
45318;SDS011;31057;48.498;32.260;2022-11-15T07:30:24;144.35;;;38.60;;
45318;SDS011;31057;48.498;32.260;2022-11-15T07:32:27;165.88;;;39.90;;
45318;SDS011;31057;48.498;32.260;2022-11-15T07:34:28;124.68;;;40.20;;
45318;SDS011;31057;48.498;32.260;2022-11-15T07:36:30;88.85;;;39.15;;
45318;SDS011;31057;48.498;32.260;2022-11-15T07:38:33;121.97;;;38.90;;
45318;SDS011;31057;48.498;32.260;2022-11-15T07:40:42;83.47;;;37.38;;
45318;SDS011;31057;48.498;32.260;2022-11-15T07:42:44;99.20;;;37.35;;
45318;SDS011;31057;48.498;32.260;2022-11-15T07:44:55;87.25;;;32.65;;
45318;SDS011;31057;48.498;32.260;2022-11-15T07:46:57;139.77;;;37.78;;
45318;SDS011;31057;48.498;32.260;2022-11-15T07:51:01;68.57;;;28.98;;
45318;SDS011;31057;48.498;32.260;2022-11-15T07:53:03;72.75;;;29.15;;
45318;SDS011;31057;48.498;32.260;2022-11-15T07:55:05;88.07;;;31.17;;
45318;SDS011;31057;48.498;32.260;2022-11-15T07:57:07;89.22;;;27.90;;
45318;SDS011;31057;48.498;32.260;2022-11-15T07:59:11;78.72;;;28.70;;
45318;SDS011;31057;48.498;32.260;2022-11-15T08:01:12;75.22;;;28.13;;
45318;SDS011;31057;48.498;32.260;2022-11-15T08:03:15;214.27;;;35.22;;
45318;SDS011;31057;48.498;32.260;2022-11-15T08:05:18;62.95;;;25.10;;
45318;SDS011;31057;48.498;32.260;2022-11-15T08:07:20;74.28;;;27.08;;
45318;SDS011;31057;48.498;32.260;2022-11-15T08:09:22;49.20;;;25.42;;
45318;SDS011;31057;48.498;32.260;2022-11-15T08:11:24;39.40;;;21.27;;
45318;SDS011;31057;48.498;32.260;2022-11-15T08:13:25;42.42;;;22.02;;
45318;SDS011;31057;48.498;32.260;2022-11-15T08:17:30;55.15;;;27.25;;
45318;SDS011;31057;48.498;32.260;2022-11-15T08:19:34;64.70;;;27.95;;
45318;SDS011;31057;48.498;32.260;2022-11-15T08:21:35;51.78;;;25.63;;
45318;SDS011;31057;48.498;32.260;2022-11-15T08:23:38;61.08;;;25.13;;
45318;SDS011;31057;48.498;32.260;2022-11-15T08:25:40;69.13;;;26.80;;
45318;SDS011;31057;48.498;32.260;2022-11-15T08:27:42;60.22;;;25.17;;
45318;SDS011;31057;48.498;32.260;2022-11-15T08:29:44;55.25;;;24.60;;
45318;SDS011;31057;48.498;32.260;2022-11-15T08:31:46;39.65;;;20.17;;
45318;SDS011;31057;48.498;32.260;2022-11-15T08:33:48;35.28;;;19.73;;
45318;SDS011;31057;48.498;32.260;2022-11-15T08:35:50;50.08;;;22.60;;
45318;SDS011;31057;48.498;32.260;2022-11-15T08:37:52;35.88;;;22.00;;
45318;SDS011;31057;48.498;32.260;2022-11-15T08:39:54;36.35;;;21.27;;
45318;SDS011;31057;48.498;32.260;2022-11-15T08:41:56;43.13;;;21.65;;
45318;SDS011;31057;48.498;32.260;2022-11-15T08:46:00;33.88;;;20.98;;
45318;SDS011;31057;48.498;32.260;2022-11-15T08:48:02;36.70;;;20.35;;
45318;SDS011;31057;48.498;32.260;2022-11-15T08:50:05;33.22;;;20.15;;
45318;SDS011;31057;48.498;32.260;2022-11-15T08:52:07;25.85;;;16.38;;
45318;SDS011;31057;48.498;32.260;2022-11-15T08:54:09;29.98;;;17.83;;
45318;SDS011;31057;48.498;32.260;2022-11-15T08:56:12;28.23;;;16.38;;
45318;SDS011;31057;48.498;32.260;2022-11-15T08:58:15;25.30;;;16.40;;
45318;SDS011;31057;48.498;32.260;2022-11-15T09:00:17;26.60;;;17.27;;
45318;SDS011;31057;48.498;32.260;2022-11-15T09:02:21;26.08;;;16.50;;
45318;SDS011;31057;48.498;32.260;2022-11-15T09:04:23;25.63;;;16.65;;
45318;SDS011;31057;48.498;32.260;2022-11-15T09:08:30;29.45;;;16.83;;
45318;SDS011;31057;48.498;32.260;2022-11-15T09:10:49;25.02;;;15.75;;
45318;SDS011;31057;48.498;32.260;2022-11-15T09:12:51;24.65;;;15.35;;
45318;SDS011;31057;48.498;32.260;2022-11-15T09:14:53;27.13;;;15.95;;
45318;SDS011;31057;48.498;32.260;2022-11-15T09:16:54;22.25;;;15.27;;
45318;SDS011;31057;48.498;32.260;2022-11-15T09:18:56;23.95;;;15.77;;
45318;SDS011;31057;48.498;32.260;2022-11-15T09:20:59;29.17;;;17.83;;
45318;SDS011;31057;48.498;32.260;2022-11-15T09:23:01;31.38;;;19.38;;
45318;SDS011;31057;48.498;32.260;2022-11-15T09:25:04;36.25;;;19.95;;
45318;SDS011;31057;48.498;32.260;2022-11-15T09:27:11;31.73;;;18.67;;
45318;SDS011;31057;48.498;32.260;2022-11-15T09:29:14;31.75;;;18.02;;
45318;SDS011;31057;48.498;32.260;2022-11-15T09:31:16;29.98;;;20.90;;
45318;SDS011;31057;48.498;32.260;2022-11-15T09:33:22;24.38;;;16.20;;
45318;SDS011;31057;48.498;32.260;2022-11-15T09:35:24;26.60;;;17.20;;
45318;SDS011;31057;48.498;32.260;2022-11-15T09:37:26;29.67;;;20.08;;
45318;SDS011;31057;48.498;32.260;2022-11-15T09:41:50;27.48;;;17.45;;
45318;SDS011;31057;48.498;32.260;2022-11-15T09:46:45;25.10;;;15.02;;
45318;SDS011;31057;48.498;32.260;2022-11-15T09:49:08;26.10;;;15.20;;
45318;SDS011;31057;48.498;32.260;2022-11-15T09:51:24;28.02;;;16.88;;
45318;SDS011;31057;48.498;32.260;2022-11-15T09:53:49;26.73;;;16.58;;
45318;SDS011;31057;48.498;32.260;2022-11-15T09:56:15;23.00;;;15.27;;
45318;SDS011;31057;48.498;32.260;2022-11-15T09:58:38;21.73;;;15.32;;
45318;SDS011;31057;48.498;32.260;2022-11-15T10:00:47;20.88;;;15.68;;
45318;SDS011;31057;48.498;32.260;2022-11-15T10:05:18;22.38;;;15.05;;
45318;SDS011;31057;48.498;32.260;2022-11-15T10:09:50;20.02;;;15.60;;
45318;SDS011;31057;48.498;32.260;2022-11-15T10:12:08;26.80;;;16.77;;
45318;SDS011;31057;48.498;32.260;2022-11-15T10:14:13;25.10;;;17.38;;
45318;SDS011;31057;48.498;32.260;2022-11-15T10:18:29;27.88;;;17.40;;
45318;SDS011;31057;48.498;32.260;2022-11-15T10:23:10;23.00;;;16.63;;
45318;SDS011;31057;48.498;32.260;2022-11-15T10:27:18;28.30;;;15.85;;
45318;SDS011;31057;48.498;32.260;2022-11-15T10:29:22;23.70;;;16.48;;
45318;SDS011;31057;48.498;32.260;2022-11-15T10:31:28;24.42;;;17.45;;
45318;SDS011;31057;48.498;32.260;2022-11-15T10:33:34;25.58;;;16.63;;
45318;SDS011;31057;48.498;32.260;2022-11-15T10:35:38;24.55;;;16.25;;
45318;SDS011;31057;48.498;32.260;2022-11-15T10:39:42;20.90;;;15.73;;
45318;SDS011;31057;48.498;32.260;2022-11-15T10:41:44;24.98;;;15.80;;
45318;SDS011;31057;48.498;32.260;2022-11-15T10:46:16;23.08;;;15.88;;
45318;SDS011;31057;48.498;32.260;2022-11-15T10:48:44;21.33;;;14.60;;
45318;SDS011;31057;48.498;32.260;2022-11-15T10:50:46;18.67;;;13.63;;
45318;SDS011;31057;48.498;32.260;2022-11-15T10:52:50;22.85;;;14.63;;
45318;SDS011;31057;48.498;32.260;2022-11-15T10:57:08;15.90;;;11.70;;
45318;SDS011;31057;48.498;32.260;2022-11-15T10:59:18;18.42;;;13.20;;
45318;SDS011;31057;48.498;32.260;2022-11-15T11:01:28;22.92;;;15.77;;
45318;SDS011;31057;48.498;32.260;2022-11-15T11:03:34;21.60;;;15.23;;
45318;SDS011;31057;48.498;32.260;2022-11-15T11:05:40;23.67;;;16.00;;
45318;SDS011;31057;48.498;32.260;2022-11-15T11:07:43;23.83;;;15.25;;
45318;SDS011;31057;48.498;32.260;2022-11-15T11:10:18;22.60;;;14.02;;
45318;SDS011;31057;48.498;32.260;2022-11-15T11:12:42;16.15;;;12.05;;
45318;SDS011;31057;48.498;32.260;2022-11-15T11:14:44;19.67;;;12.88;;
45318;SDS011;31057;48.498;32.260;2022-11-15T11:17:09;16.50;;;12.48;;
45318;SDS011;31057;48.498;32.260;2022-11-15T11:23:53;29.85;;;14.07;;
45318;SDS011;31057;48.498;32.260;2022-11-15T11:33:01;20.90;;;11.55;;
45318;SDS011;31057;48.498;32.260;2022-11-15T11:35:14;13.95;;;10.00;;
45318;SDS011;31057;48.498;32.260;2022-11-15T11:47:10;20.02;;;9.88;;
45318;SDS011;31057;48.498;32.260;2022-11-15T11:49:20;20.25;;;10.77;;
45318;SDS011;31057;48.498;32.260;2022-11-15T11:54:12;15.43;;;9.88;;
45318;SDS011;31057;48.498;32.260;2022-11-15T11:56:28;11.02;;;8.40;;
45318;SDS011;31057;48.498;32.260;2022-11-15T11:58:34;17.02;;;10.30;;
45318;SDS011;31057;48.498;32.260;2022-11-15T12:00:41;12.48;;;9.20;;
45318;SDS011;31057;48.498;32.260;2022-11-15T12:03:09;17.25;;;9.18;;
45318;SDS011;31057;48.498;32.260;2022-11-15T12:05:22;12.35;;;8.82;;
45318;SDS011;31057;48.498;32.260;2022-11-15T12:07:30;15.07;;;9.10;;
45318;SDS011;31057;48.498;32.260;2022-11-15T12:11:42;12.82;;;9.63;;
45318;SDS011;31057;48.498;32.260;2022-11-15T12:13:46;15.85;;;10.63;;
45318;SDS011;31057;48.498;32.260;2022-11-15T12:18:14;15.68;;;10.88;;
45318;SDS011;31057;48.498;32.260;2022-11-15T12:20:22;17.33;;;10.63;;
45318;SDS011;31057;48.498;32.260;2022-11-15T12:22:41;16.90;;;8.95;;
45318;SDS011;31057;48.498;32.260;2022-11-15T12:25:08;15.68;;;9.98;;
45318;SDS011;31057;48.498;32.260;2022-11-15T12:27:42;12.50;;;9.95;;
45318;SDS011;31057;48.498;32.260;2022-11-15T12:29:51;18.70;;;12.20;;
45318;SDS011;31057;48.498;32.260;2022-11-15T12:31:56;13.23;;;10.32;;
45318;SDS011;31057;48.498;32.260;2022-11-15T12:34:15;19.17;;;13.40;;
45318;SDS011;31057;48.498;32.260;2022-11-15T12:41:13;17.20;;;12.27;;
45318;SDS011;31057;48.498;32.260;2022-11-15T12:47:28;15.90;;;11.98;;
45318;SDS011;31057;48.498;32.260;2022-11-15T12:53:45;21.60;;;13.38;;
45318;SDS011;31057;48.498;32.260;2022-11-15T12:55:57;17.38;;;11.43;;
45318;SDS011;31057;48.498;32.260;2022-11-15T12:58:59;15.60;;;12.23;;
45318;SDS011;31057;48.498;32.260;2022-11-15T13:00:44;22.67;;;13.90;;
45318;SDS011;31057;48.498;32.260;2022-11-15T13:02:46;21.73;;;13.70;;
45318;SDS011;31057;48.498;32.260;2022-11-15T13:04:50;18.92;;;13.65;;
45318;SDS011;31057;48.498;32.260;2022-11-15T13:09:02;22.45;;;13.73;;
45318;SDS011;31057;48.498;32.260;2022-11-15T13:13:49;22.67;;;14.02;;
45318;SDS011;31057;48.498;32.260;2022-11-15T13:15:55;16.42;;;13.20;;
45318;SDS011;31057;48.498;32.260;2022-11-15T13:18:23;19.83;;;14.48;;
45318;SDS011;31057;48.498;32.260;2022-11-15T13:20:32;19.52;;;13.55;;
45318;SDS011;31057;48.498;32.260;2022-11-15T13:24:56;21.38;;;15.15;;
45318;SDS011;31057;48.498;32.260;2022-11-15T13:27:09;24.42;;;17.42;;
45318;SDS011;31057;48.498;32.260;2022-11-15T13:29:19;25.02;;;16.20;;
45318;SDS011;31057;48.498;32.260;2022-11-15T13:33:36;25.00;;;17.98;;
45318;SDS011;31057;48.498;32.260;2022-11-15T13:35:40;23.13;;;17.05;;
45318;SDS011;31057;48.498;32.260;2022-11-15T13:37:46;26.00;;;16.85;;
45318;SDS011;31057;48.498;32.260;2022-11-15T13:39:52;23.15;;;17.33;;
45318;SDS011;31057;48.498;32.260;2022-11-15T13:41:54;32.72;;;23.05;;
45318;SDS011;31057;48.498;32.260;2022-11-15T13:43:56;32.22;;;20.08;;
45318;SDS011;31057;48.498;32.260;2022-11-15T13:48:23;29.15;;;20.77;;
45318;SDS011;31057;48.498;32.260;2022-11-15T13:50:27;34.40;;;22.70;;
45318;SDS011;31057;48.498;32.260;2022-11-15T13:52:35;40.05;;;22.92;;
45318;SDS011;31057;48.498;32.260;2022-11-15T13:54:42;37.45;;;23.10;;
45318;SDS011;31057;48.498;32.260;2022-11-15T13:56:48;35.53;;;24.48;;
45318;SDS011;31057;48.498;32.260;2022-11-15T13:58:56;37.17;;;26.23;;
45318;SDS011;31057;48.498;32.260;2022-11-15T14:03:05;36.17;;;22.38;;
45318;SDS011;31057;48.498;32.260;2022-11-15T14:05:16;30.52;;;22.85;;
45318;SDS011;31057;48.498;32.260;2022-11-15T14:07:21;36.25;;;24.48;;
45318;SDS011;31057;48.498;32.260;2022-11-15T14:11:53;35.53;;;22.80;;
45318;SDS011;31057;48.498;32.260;2022-11-15T14:14:08;36.30;;;23.20;;
45318;SDS011;31057;48.498;32.260;2022-11-15T14:16:15;35.25;;;20.75;;
45318;SDS011;31057;48.498;32.260;2022-11-15T14:22:52;31.10;;;20.10;;
45318;SDS011;31057;48.498;32.260;2022-11-15T14:25:18;35.63;;;20.75;;
45318;SDS011;31057;48.498;32.260;2022-11-15T14:27:26;34.85;;;20.48;;
45318;SDS011;31057;48.498;32.260;2022-11-15T14:29:29;33.42;;;20.52;;
45318;SDS011;31057;48.498;32.260;2022-11-15T14:33:34;37.03;;;20.92;;
45318;SDS011;31057;48.498;32.260;2022-11-15T14:35:40;31.38;;;18.73;;
45318;SDS011;31057;48.498;32.260;2022-11-15T14:37:42;35.05;;;20.52;;
45318;SDS011;31057;48.498;32.260;2022-11-15T14:39:44;25.52;;;18.75;;
45318;SDS011;31057;48.498;32.260;2022-11-15T14:41:46;31.80;;;20.73;;
45318;SDS011;31057;48.498;32.260;2022-11-15T14:43:48;25.27;;;18.63;;
45318;SDS011;31057;48.498;32.260;2022-11-15T14:45:51;33.90;;;21.88;;
45318;SDS011;31057;48.498;32.260;2022-11-15T14:47:53;30.88;;;21.65;;
45318;SDS011;31057;48.498;32.260;2022-11-15T14:49:55;27.58;;;19.95;;
45318;SDS011;31057;48.498;32.260;2022-11-15T14:51:58;38.47;;;23.70;;
45318;SDS011;31057;48.498;32.260;2022-11-15T14:54:00;32.03;;;22.67;;